sensor_id;sensor_type;location;lat;lon;timestamp;pressure;altitude;pressure_sealevel;temperature;humidity
76108;BME280;64834;52.516;10.528;2023-05-20T00:01:27;101993.81;;;11.06;63.84
76108;BME280;64834;52.516;10.528;2023-05-20T00:03:53;102000.78;;;11.05;63.36
76108;BME280;64834;52.516;10.528;2023-05-20T00:06:18;102004.06;;;10.91;63.89
76108;BME280;64834;52.516;10.528;2023-05-20T00:08:43;101999.31;;;10.97;64.05
76108;BME280;64834;52.516;10.528;2023-05-20T00:11:08;101996.78;;;10.87;63.97
76108;BME280;64834;52.516;10.528;2023-05-20T00:13:34;101993.47;;;10.78;64.07
76108;BME280;64834;52.516;10.528;2023-05-20T00:16:00;101994.84;;;10.85;63.50
76108;BME280;64834;52.516;10.528;2023-05-20T00:18:25;101995.75;;;10.73;63.76
76108;BME280;64834;52.516;10.528;2023-05-20T00:20:51;101994.25;;;10.65;64.06
76108;BME280;64834;52.516;10.528;2023-05-20T00:23:18;102001.22;;;10.65;64.31
76108;BME280;64834;52.516;10.528;2023-05-20T00:25:43;101994.94;;;10.74;63.70
76108;BME280;64834;52.516;10.528;2023-05-20T00:28:08;101994.59;;;10.58;64.61
76108;BME280;64834;52.516;10.528;2023-05-20T00:30:34;102005.63;;;10.66;63.73
76108;BME280;64834;52.516;10.528;2023-05-20T00:32:59;101999.56;;;10.55;64.47
76108;BME280;64834;52.516;10.528;2023-05-20T00:35:24;102001.44;;;10.56;63.71
76108;BME280;64834;52.516;10.528;2023-05-20T00:37:50;101995.38;;;10.45;64.48
76108;BME280;64834;52.516;10.528;2023-05-20T00:40:15;101993.22;;;10.51;63.85
76108;BME280;64834;52.516;10.528;2023-05-20T00:42:40;101992.63;;;10.44;64.71
76108;BME280;64834;52.516;10.528;2023-05-20T00:45:06;101999.56;;;10.55;64.21
76108;BME280;64834;52.516;10.528;2023-05-20T00:47:32;101995.03;;;10.52;64.62
76108;BME280;64834;52.516;10.528;2023-05-20T00:49:59;101993.06;;;10.38;64.98
76108;BME280;64834;52.516;10.528;2023-05-20T00:52:25;101993.31;;;10.53;64.13
76108;BME280;64834;52.516;10.528;2023-05-20T00:54:51;101987.38;;;10.32;64.82
76108;BME280;64834;52.516;10.528;2023-05-20T00:57:18;101984.16;;;10.36;64.72
76108;BME280;64834;52.516;10.528;2023-05-20T00:59:43;101987.59;;;10.35;64.66
76108;BME280;64834;52.516;10.528;2023-05-20T01:02:09;101990.03;;;10.44;64.16
76108;BME280;64834;52.516;10.528;2023-05-20T01:04:34;101983.94;;;10.33;64.58
76108;BME280;64834;52.516;10.528;2023-05-20T01:07:01;101986.78;;;10.24;65.22
76108;BME280;64834;52.516;10.528;2023-05-20T01:09:29;101986.13;;;10.17;65.37
76108;BME280;64834;52.516;10.528;2023-05-20T01:12:08;101981.00;;;10.07;65.75
76108;BME280;64834;52.516;10.528;2023-05-20T01:14:42;101980.03;;;9.94;66.50
76108;BME280;64834;52.516;10.528;2023-05-20T01:17:08;101980.41;;;10.11;65.60
76108;BME280;64834;52.516;10.528;2023-05-20T01:19:46;101974.00;;;9.95;65.87
76108;BME280;64834;52.516;10.528;2023-05-20T01:22:13;101969.38;;;10.03;65.33
76108;BME280;64834;52.516;10.528;2023-05-20T01:24:44;101979.06;;;9.82;66.11
76108;BME280;64834;52.516;10.528;2023-05-20T01:27:10;101976.03;;;9.88;66.60
76108;BME280;64834;52.516;10.528;2023-05-20T01:29:38;101978.56;;;9.98;65.87
76108;BME280;64834;52.516;10.528;2023-05-20T01:32:10;101984.94;;;10.02;65.44
76108;BME280;64834;52.516;10.528;2023-05-20T01:34:38;101982.97;;;9.99;65.54
76108;BME280;64834;52.516;10.528;2023-05-20T01:37:06;101978.94;;;9.81;66.45
76108;BME280;64834;52.516;10.528;2023-05-20T01:39:35;101974.38;;;9.78;66.75
76108;BME280;64834;52.516;10.528;2023-05-20T01:42:02;101968.78;;;9.73;66.35
76108;BME280;64834;52.516;10.528;2023-05-20T01:44:29;101972.13;;;9.83;66.09
76108;BME280;64834;52.516;10.528;2023-05-20T01:46:55;101967.31;;;9.77;66.27
76108;BME280;64834;52.516;10.528;2023-05-20T01:49:20;101969.34;;;9.69;66.80
76108;BME280;64834;52.516;10.528;2023-05-20T01:51:45;101960.75;;;9.60;66.61
76108;BME280;64834;52.516;10.528;2023-05-20T01:54:10;101958.06;;;9.49;67.60
76108;BME280;64834;52.516;10.528;2023-05-20T01:56:36;101954.00;;;9.52;67.22
76108;BME280;64834;52.516;10.528;2023-05-20T01:59:01;101950.38;;;9.50;67.58
76108;BME280;64834;52.516;10.528;2023-05-20T02:01:26;101950.91;;;9.46;67.37
76108;BME280;64834;52.516;10.528;2023-05-20T02:03:52;101955.59;;;9.50;67.44
76108;BME280;64834;52.516;10.528;2023-05-20T02:06:17;101961.44;;;9.58;67.50
76108;BME280;64834;52.516;10.528;2023-05-20T02:08:42;101956.13;;;9.46;67.88
76108;BME280;64834;52.516;10.528;2023-05-20T02:11:08;101956.69;;;9.64;67.20
76108;BME280;64834;52.516;10.528;2023-05-20T02:13:33;101955.03;;;9.54;68.03
76108;BME280;64834;52.516;10.528;2023-05-20T02:15:58;101950.59;;;9.53;67.91
76108;BME280;64834;52.516;10.528;2023-05-20T02:18:23;101943.03;;;9.56;68.37
76108;BME280;64834;52.516;10.528;2023-05-20T02:20:50;101949.97;;;9.56;67.92
76108;BME280;64834;52.516;10.528;2023-05-20T02:23:16;101952.31;;;9.53;68.34
76108;BME280;64834;52.516;10.528;2023-05-20T02:25:42;101949.59;;;9.51;68.33
76108;BME280;64834;52.516;10.528;2023-05-20T02:28:07;101950.00;;;9.45;68.92
76108;BME280;64834;52.516;10.528;2023-05-20T02:30:37;101953.59;;;9.58;68.48
76108;BME280;64834;52.516;10.528;2023-05-20T02:33:03;101957.22;;;9.60;68.65
76108;BME280;64834;52.516;10.528;2023-05-20T02:35:28;101948.69;;;9.51;68.97
76108;BME280;64834;52.516;10.528;2023-05-20T02:37:53;101941.31;;;9.57;68.70
76108;BME280;64834;52.516;10.528;2023-05-20T02:40:19;101950.88;;;9.56;69.35
76108;BME280;64834;52.516;10.528;2023-05-20T02:42:44;101953.16;;;9.41;69.85
76108;BME280;64834;52.516;10.528;2023-05-20T02:45:10;101953.16;;;9.41;69.99
76108;BME280;64834;52.516;10.528;2023-05-20T02:47:36;101955.91;;;9.43;69.69
76108;BME280;64834;52.516;10.528;2023-05-20T02:50:01;101961.66;;;9.39;69.94
76108;BME280;64834;52.516;10.528;2023-05-20T02:52:27;101959.47;;;9.33;70.39
76108;BME280;64834;52.516;10.528;2023-05-20T02:54:52;101958.44;;;9.31;70.28
76108;BME280;64834;52.516;10.528;2023-05-20T02:57:17;101961.47;;;9.26;70.77
76108;BME280;64834;52.516;10.528;2023-05-20T02:59:43;101956.34;;;9.27;70.39
76108;BME280;64834;52.516;10.528;2023-05-20T03:02:08;101953.63;;;9.26;70.42
76108;BME280;64834;52.516;10.528;2023-05-20T03:04:33;101953.25;;;9.21;71.11
76108;BME280;64834;52.516;10.528;2023-05-20T03:07:03;101955.84;;;9.21;70.62
76108;BME280;64834;52.516;10.528;2023-05-20T03:09:29;101955.06;;;9.22;71.12
76108;BME280;64834;52.516;10.528;2023-05-20T03:11:55;101964.88;;;9.25;70.77
76108;BME280;64834;52.516;10.528;2023-05-20T03:14:20;101960.28;;;9.22;70.60
76108;BME280;64834;52.516;10.528;2023-05-20T03:16:45;101967.63;;;9.16;71.30
76108;BME280;64834;52.516;10.528;2023-05-20T03:19:10;101961.50;;;9.15;71.41
76108;BME280;64834;52.516;10.528;2023-05-20T03:21:36;101957.84;;;9.13;71.40
76108;BME280;64834;52.516;10.528;2023-05-20T03:24:01;101953.16;;;9.09;71.73
76108;BME280;64834;52.516;10.528;2023-05-20T03:26:26;101954.03;;;9.20;71.44
76108;BME280;64834;52.516;10.528;2023-05-20T03:28:52;101957.69;;;9.22;71.53
76108;BME280;64834;52.516;10.528;2023-05-20T03:31:17;101958.19;;;9.28;71.14
76108;BME280;64834;52.516;10.528;2023-05-20T03:33:43;101956.25;;;9.26;71.26
76108;BME280;64834;52.516;10.528;2023-05-20T03:36:09;101952.06;;;9.17;71.56
76108;BME280;64834;52.516;10.528;2023-05-20T03:38:34;101963.59;;;9.09;71.97
76108;BME280;64834;52.516;10.528;2023-05-20T03:41:00;101965.41;;;9.10;72.06
76108;BME280;64834;52.516;10.528;2023-05-20T03:43:25;101961.78;;;9.08;72.44
76108;BME280;64834;52.516;10.528;2023-05-20T03:45:51;101966.19;;;9.19;72.06
76108;BME280;64834;52.516;10.528;2023-05-20T03:48:17;101963.19;;;9.15;72.42
76108;BME280;64834;52.516;10.528;2023-05-20T03:50:42;101963.91;;;9.34;72.04
76108;BME280;64834;52.516;10.528;2023-05-20T03:53:07;101959.97;;;9.39;72.06
76108;BME280;64834;52.516;10.528;2023-05-20T03:55:33;101970.31;;;9.82;70.58
76108;BME280;64834;52.516;10.528;2023-05-20T03:57:58;101972.94;;;10.37;68.21
76108;BME280;64834;52.516;10.528;2023-05-20T04:00:25;101978.56;;;10.77;66.82
76108;BME280;64834;52.516;10.528;2023-05-20T04:02:50;101975.63;;;10.84;66.46
76108;BME280;64834;52.516;10.528;2023-05-20T04:05:15;101973.53;;;10.45;67.20
76108;BME280;64834;52.516;10.528;2023-05-20T04:07:41;101972.50;;;10.21;68.26
76108;BME280;64834;52.516;10.528;2023-05-20T04:10:07;101980.25;;;9.97;69.60
76108;BME280;64834;52.516;10.528;2023-05-20T04:12:32;101986.91;;;9.82;71.00
76108;BME280;64834;52.516;10.528;2023-05-20T04:15:01;101982.38;;;9.91;70.23
76108;BME280;64834;52.516;10.528;2023-05-20T04:17:27;101979.88;;;9.93;70.43
76108;BME280;64834;52.516;10.528;2023-05-20T04:19:54;101983.94;;;9.99;70.19
76108;BME280;64834;52.516;10.528;2023-05-20T04:22:20;101985.84;;;10.02;70.51
76108;BME280;64834;52.516;10.528;2023-05-20T04:24:45;101980.03;;;9.94;70.79
76108;BME280;64834;52.516;10.528;2023-05-20T04:27:10;101977.41;;;9.94;70.90
76108;BME280;64834;52.516;10.528;2023-05-20T04:29:36;101987.56;;;10.02;70.42
76108;BME280;64834;52.516;10.528;2023-05-20T04:32:01;101986.88;;;10.04;71.18
76108;BME280;64834;52.516;10.528;2023-05-20T04:34:30;101984.63;;;10.09;71.01
76108;BME280;64834;52.516;10.528;2023-05-20T04:36:59;101983.59;;;10.07;70.86
76108;BME280;64834;52.516;10.528;2023-05-20T04:39:25;101980.59;;;10.24;70.48
76108;BME280;64834;52.516;10.528;2023-05-20T04:41:51;101978.47;;;10.30;70.72
76108;BME280;64834;52.516;10.528;2023-05-20T04:44:19;101977.38;;;10.38;70.50
76108;BME280;64834;52.516;10.528;2023-05-20T04:46:44;101976.53;;;10.27;70.71
76108;BME280;64834;52.516;10.528;2023-05-20T04:49:10;101974.28;;;10.32;70.95
76108;BME280;64834;52.516;10.528;2023-05-20T04:51:35;101978.94;;;10.36;70.60
76108;BME280;64834;52.516;10.528;2023-05-20T04:54:01;101976.03;;;10.43;70.41
76108;BME280;64834;52.516;10.528;2023-05-20T04:56:26;101978.31;;;10.50;70.56
76108;BME280;64834;52.516;10.528;2023-05-20T04:58:51;101981.63;;;10.60;70.61
76108;BME280;64834;52.516;10.528;2023-05-20T05:01:17;101981.19;;;10.77;69.84
76108;BME280;64834;52.516;10.528;2023-05-20T05:03:43;101975.84;;;10.75;69.58
76108;BME280;64834;52.516;10.528;2023-05-20T05:06:08;101969.91;;;10.78;69.82
76108;BME280;64834;52.516;10.528;2023-05-20T05:08:34;101969.81;;;10.76;69.86
76108;BME280;64834;52.516;10.528;2023-05-20T05:10:59;101965.59;;;10.90;69.78
76108;BME280;64834;52.516;10.528;2023-05-20T05:13:24;101967.41;;;10.91;69.71
76108;BME280;64834;52.516;10.528;2023-05-20T05:15:57;101962.53;;;10.96;70.11
76108;BME280;64834;52.516;10.528;2023-05-20T05:18:22;101965.47;;;11.12;69.58
76108;BME280;64834;52.516;10.528;2023-05-20T05:20:48;101966.84;;;11.07;69.98
76108;BME280;64834;52.516;10.528;2023-05-20T05:23:13;101969.44;;;11.19;69.84
76108;BME280;64834;52.516;10.528;2023-05-20T05:25:38;101969.78;;;11.23;68.89
76108;BME280;64834;52.516;10.528;2023-05-20T05:28:04;101964.66;;;11.25;69.21
76108;BME280;64834;52.516;10.528;2023-05-20T05:30:29;101966.91;;;11.44;68.88
76108;BME280;64834;52.516;10.528;2023-05-20T05:32:54;101969.50;;;11.44;69.34
76108;BME280;64834;52.516;10.528;2023-05-20T05:35:20;101973.72;;;11.53;68.86
76108;BME280;64834;52.516;10.528;2023-05-20T05:37:45;101966.94;;;11.69;68.82
76108;BME280;64834;52.516;10.528;2023-05-20T05:40:11;101968.09;;;11.72;68.36
76108;BME280;64834;52.516;10.528;2023-05-20T05:42:36;101963.38;;;11.80;69.08
76108;BME280;64834;52.516;10.528;2023-05-20T05:45:01;101961.94;;;11.72;68.87
76108;BME280;64834;52.516;10.528;2023-05-20T05:47:27;101955.97;;;11.86;69.18
76108;BME280;64834;52.516;10.528;2023-05-20T05:49:56;101956.66;;;11.95;68.87
76108;BME280;64834;52.516;10.528;2023-05-20T05:52:22;101961.50;;;12.02;68.34
76108;BME280;64834;52.516;10.528;2023-05-20T05:54:47;101955.72;;;12.20;68.32
76108;BME280;64834;52.516;10.528;2023-05-20T05:57:12;101951.00;;;12.27;67.71
76108;BME280;64834;52.516;10.528;2023-05-20T05:59:37;101949.38;;;12.29;68.02
76108;BME280;64834;52.516;10.528;2023-05-20T06:02:03;101953.44;;;12.37;68.00
76108;BME280;64834;52.516;10.528;2023-05-20T06:04:28;101953.78;;;12.68;68.23
76108;BME280;64834;52.516;10.528;2023-05-20T06:06:54;101953.94;;;12.83;67.01
76108;BME280;64834;52.516;10.528;2023-05-20T06:09:19;101943.59;;;13.00;67.61
76108;BME280;64834;52.516;10.528;2023-05-20T06:11:44;101943.19;;;13.07;67.14
76108;BME280;64834;52.516;10.528;2023-05-20T06:14:09;101939.06;;;13.23;65.85
76108;BME280;64834;52.516;10.528;2023-05-20T06:16:35;101942.97;;;13.43;66.32
76108;BME280;64834;52.516;10.528;2023-05-20T06:19:00;101943.63;;;13.39;66.00
76108;BME280;64834;52.516;10.528;2023-05-20T06:21:26;101939.34;;;13.41;66.87
76108;BME280;64834;52.516;10.528;2023-05-20T06:23:51;101940.91;;;13.66;66.17
76108;BME280;64834;52.516;10.528;2023-05-20T06:26:16;101939.38;;;13.69;65.75
76108;BME280;64834;52.516;10.528;2023-05-20T06:28:42;101935.03;;;13.98;64.63
76108;BME280;64834;52.516;10.528;2023-05-20T06:31:07;101935.16;;;14.29;63.99
76108;BME280;64834;52.516;10.528;2023-05-20T06:33:33;101936.81;;;14.42;63.34
76108;BME280;64834;52.516;10.528;2023-05-20T06:35:58;101934.47;;;14.61;62.25
76108;BME280;64834;52.516;10.528;2023-05-20T06:38:25;101941.66;;;14.49;62.32
76108;BME280;64834;52.516;10.528;2023-05-20T06:40:51;101935.75;;;14.53;62.37
76108;BME280;64834;52.516;10.528;2023-05-20T06:43:16;101938.09;;;14.63;61.95
76108;BME280;64834;52.516;10.528;2023-05-20T06:45:42;101936.38;;;14.78;62.75
76108;BME280;64834;52.516;10.528;2023-05-20T06:48:08;101926.56;;;14.91;62.50
76108;BME280;64834;52.516;10.528;2023-05-20T06:50:33;101931.16;;;15.41;60.78
76108;BME280;64834;52.516;10.528;2023-05-20T06:52:59;101925.75;;;15.70;59.35
76108;BME280;64834;52.516;10.528;2023-05-20T06:55:24;101928.19;;;15.51;59.96
76108;BME280;64834;52.516;10.528;2023-05-20T06:57:50;101919.28;;;15.49;60.08
76108;BME280;64834;52.516;10.528;2023-05-20T07:00:16;101920.13;;;15.48;59.79
76108;BME280;64834;52.516;10.528;2023-05-20T07:02:41;101919.72;;;15.25;60.07
76108;BME280;64834;52.516;10.528;2023-05-20T07:05:07;101910.19;;;15.27;60.06
76108;BME280;64834;52.516;10.528;2023-05-20T07:07:33;101910.06;;;15.41;59.71
76108;BME280;64834;52.516;10.528;2023-05-20T07:09:58;101921.03;;;15.48;58.82
76108;BME280;64834;52.516;10.528;2023-05-20T07:12:23;101924.06;;;15.56;58.67
76108;BME280;64834;52.516;10.528;2023-05-20T07:14:49;101912.50;;;15.37;59.32
76108;BME280;64834;52.516;10.528;2023-05-20T07:17:14;101918.88;;;15.41;58.82
76108;BME280;64834;52.516;10.528;2023-05-20T07:19:40;101918.53;;;15.51;58.54
76108;BME280;64834;52.516;10.528;2023-05-20T07:22:05;101920.88;;;15.61;58.76
76108;BME280;64834;52.516;10.528;2023-05-20T07:24:30;101920.25;;;15.34;58.64
76108;BME280;64834;52.516;10.528;2023-05-20T07:26:56;101910.50;;;15.64;57.68
76108;BME280;64834;52.516;10.528;2023-05-20T07:29:21;101923.13;;;15.70;57.91
76108;BME280;64834;52.516;10.528;2023-05-20T07:31:46;101914.63;;;15.76;57.05
76108;BME280;64834;52.516;10.528;2023-05-20T07:34:12;101914.28;;;16.02;56.47
76108;BME280;64834;52.516;10.528;2023-05-20T07:36:37;101915.19;;;16.19;56.84
76108;BME280;64834;52.516;10.528;2023-05-20T07:39:03;101911.91;;;16.07;56.74
76108;BME280;64834;52.516;10.528;2023-05-20T07:41:28;101903.00;;;15.88;56.99
76108;BME280;64834;52.516;10.528;2023-05-20T07:43:54;101900.53;;;15.75;57.48
76108;BME280;64834;52.516;10.528;2023-05-20T07:46:19;101904.00;;;15.74;57.23
76108;BME280;64834;52.516;10.528;2023-05-20T07:48:45;101895.41;;;15.95;57.07
76108;BME280;64834;52.516;10.528;2023-05-20T07:51:11;101895.84;;;15.70;57.64
76108;BME280;64834;52.516;10.528;2023-05-20T07:53:36;101887.84;;;15.84;58.19
76108;BME280;64834;52.516;10.528;2023-05-20T07:56:02;101890.13;;;16.11;57.18
76108;BME280;64834;52.516;10.528;2023-05-20T07:58:27;101887.88;;;16.18;56.61
76108;BME280;64834;52.516;10.528;2023-05-20T08:00:53;101891.34;;;16.17;56.00
76108;BME280;64834;52.516;10.528;2023-05-20T08:03:18;101884.91;;;16.46;55.51
76108;BME280;64834;52.516;10.528;2023-05-20T08:05:43;101876.59;;;16.91;54.44
76108;BME280;64834;52.516;10.528;2023-05-20T08:08:09;101877.19;;;16.85;55.21
76108;BME280;64834;52.516;10.528;2023-05-20T08:10:35;101874.97;;;17.12;54.24
76108;BME280;64834;52.516;10.528;2023-05-20T08:13:00;101884.00;;;16.64;54.58
76108;BME280;64834;52.516;10.528;2023-05-20T08:15:26;101876.22;;;16.15;56.55
76108;BME280;64834;52.516;10.528;2023-05-20T08:17:51;101884.72;;;15.91;56.54
76108;BME280;64834;52.516;10.528;2023-05-20T08:20:16;101870.47;;;15.57;58.25
76108;BME280;64834;52.516;10.528;2023-05-20T08:22:42;101874.91;;;15.73;58.97
76108;BME280;64834;52.516;10.528;2023-05-20T08:25:08;101871.69;;;15.62;58.49
76108;BME280;64834;52.516;10.528;2023-05-20T08:27:34;101877.72;;;15.45;59.00
76108;BME280;64834;52.516;10.528;2023-05-20T08:30:00;101880.28;;;15.43;58.88
76108;BME280;64834;52.516;10.528;2023-05-20T08:32:25;101872.13;;;15.55;59.30
76108;BME280;64834;52.516;10.528;2023-05-20T08:34:51;101861.66;;;15.56;57.94
76108;BME280;64834;52.516;10.528;2023-05-20T08:37:16;101864.25;;;15.71;58.97
76108;BME280;64834;52.516;10.528;2023-05-20T08:39:41;101873.06;;;15.88;58.44
76108;BME280;64834;52.516;10.528;2023-05-20T08:42:07;101866.47;;;16.30;56.56
76108;BME280;64834;52.516;10.528;2023-05-20T08:44:35;101871.16;;;16.36;56.79
76108;BME280;64834;52.516;10.528;2023-05-20T08:47:01;101870.66;;;16.61;56.20
76108;BME280;64834;52.516;10.528;2023-05-20T08:49:27;101866.09;;;16.92;55.36
76108;BME280;64834;52.516;10.528;2023-05-20T08:51:53;101864.59;;;16.45;55.06
76108;BME280;64834;52.516;10.528;2023-05-20T08:54:20;101877.03;;;16.30;55.59
76108;BME280;64834;52.516;10.528;2023-05-20T08:56:48;101880.59;;;15.97;56.45
76108;BME280;64834;52.516;10.528;2023-05-20T08:59:14;101871.84;;;15.81;57.23
76108;BME280;64834;52.516;10.528;2023-05-20T09:01:42;101856.63;;;15.61;57.86
76108;BME280;64834;52.516;10.528;2023-05-20T09:04:08;101865.19;;;15.72;57.91
76108;BME280;64834;52.516;10.528;2023-05-20T09:06:46;101858.88;;;15.70;58.11
76108;BME280;64834;52.516;10.528;2023-05-20T09:09:12;101860.00;;;15.58;58.41
76108;BME280;64834;52.516;10.528;2023-05-20T09:11:38;101871.16;;;15.53;58.98
76108;BME280;64834;52.516;10.528;2023-05-20T09:14:04;101862.63;;;15.26;58.77
76108;BME280;64834;52.516;10.528;2023-05-20T09:16:30;101872.25;;;15.25;59.64
76108;BME280;64834;52.516;10.528;2023-05-20T09:18:55;101862.47;;;15.39;59.20
76108;BME280;64834;52.516;10.528;2023-05-20T09:21:27;101859.69;;;15.36;59.77
76108;BME280;64834;52.516;10.528;2023-05-20T09:23:53;101860.41;;;15.33;59.72
76108;BME280;64834;52.516;10.528;2023-05-20T09:26:21;101862.47;;;15.23;59.50
76108;BME280;64834;52.516;10.528;2023-05-20T09:28:47;101870.53;;;15.26;60.05
76108;BME280;64834;52.516;10.528;2023-05-20T09:31:13;101865.03;;;15.37;59.95
76108;BME280;64834;52.516;10.528;2023-05-20T09:33:39;101874.00;;;15.72;59.41
76108;BME280;64834;52.516;10.528;2023-05-20T09:36:09;101865.13;;;16.04;58.77
76108;BME280;64834;52.516;10.528;2023-05-20T09:38:38;101862.81;;;16.10;57.90
76108;BME280;64834;52.516;10.528;2023-05-20T09:41:11;101858.44;;;15.95;58.41
76108;BME280;64834;52.516;10.528;2023-05-20T09:43:38;101867.84;;;15.89;59.24
76108;BME280;64834;52.516;10.528;2023-05-20T09:46:04;101854.00;;;15.94;59.00
76108;BME280;64834;52.516;10.528;2023-05-20T09:48:29;101852.19;;;15.93;58.52
76108;BME280;64834;52.516;10.528;2023-05-20T09:50:56;101845.16;;;16.27;58.27
76108;BME280;64834;52.516;10.528;2023-05-20T09:53:24;101844.94;;;16.40;57.32
76108;BME280;64834;52.516;10.528;2023-05-20T09:55:51;101842.63;;;16.46;57.37
76108;BME280;64834;52.516;10.528;2023-05-20T09:58:19;101848.75;;;16.45;57.14
76108;BME280;64834;52.516;10.528;2023-05-20T10:00:44;101842.47;;;16.26;57.13
76108;BME280;64834;52.516;10.528;2023-05-20T10:03:10;101838.13;;;16.62;56.64
76108;BME280;64834;52.516;10.528;2023-05-20T10:05:40;101828.84;;;16.34;56.79
76108;BME280;64834;52.516;10.528;2023-05-20T10:08:39;101840.47;;;16.04;58.39
76108;BME280;64834;52.516;10.528;2023-05-20T10:11:28;101839.03;;;16.10;58.32
76108;BME280;64834;52.516;10.528;2023-05-20T10:16:50;101838.25;;;15.95;58.17
76108;BME280;64834;52.516;10.528;2023-05-20T10:19:29;101845.09;;;15.91;58.23
76108;BME280;64834;52.516;10.528;2023-05-20T10:22:07;101844.53;;;15.97;58.46
76108;BME280;64834;52.516;10.528;2023-05-20T10:24:43;101842.09;;;16.02;59.00
76108;BME280;64834;52.516;10.528;2023-05-20T10:27:13;101842.22;;;15.87;58.70
76108;BME280;64834;52.516;10.528;2023-05-20T10:29:44;101846.84;;;15.75;59.15
76108;BME280;64834;52.516;10.528;2023-05-20T10:32:09;101842.53;;;15.60;59.89
76108;BME280;64834;52.516;10.528;2023-05-20T10:34:45;101842.13;;;15.53;60.33
76108;BME280;64834;52.516;10.528;2023-05-20T10:37:22;101830.66;;;15.36;60.80
76108;BME280;64834;52.516;10.528;2023-05-20T10:39:47;101840.81;;;15.61;60.70
76108;BME280;64834;52.516;10.528;2023-05-20T10:42:12;101839.91;;;15.60;60.71
76108;BME280;64834;52.516;10.528;2023-05-20T10:44:42;101831.78;;;15.72;59.86
76108;BME280;64834;52.516;10.528;2023-05-20T10:47:08;101822.63;;;15.66;60.72
76108;BME280;64834;52.516;10.528;2023-05-20T10:49:34;101828.94;;;15.85;60.27
76108;BME280;64834;52.516;10.528;2023-05-20T10:52:00;101827.69;;;15.95;60.12
76108;BME280;64834;52.516;10.528;2023-05-20T10:54:26;101817.47;;;16.19;59.40
76108;BME280;64834;52.516;10.528;2023-05-20T10:56:52;101824.09;;;16.11;59.01
76108;BME280;64834;52.516;10.528;2023-05-20T10:59:18;101819.28;;;16.20;59.34
76108;BME280;64834;52.516;10.528;2023-05-20T11:01:45;101829.31;;;16.27;59.46
76108;BME280;64834;52.516;10.528;2023-05-20T11:04:12;101825.91;;;15.78;60.09
76108;BME280;64834;52.516;10.528;2023-05-20T11:06:37;101826.38;;;15.87;61.01
76108;BME280;64834;52.516;10.528;2023-05-20T11:09:03;101820.22;;;15.70;60.81
76108;BME280;64834;52.516;10.528;2023-05-20T11:11:32;101825.31;;;15.51;61.15
76108;BME280;64834;52.516;10.528;2023-05-20T11:13:57;101832.31;;;15.50;61.39
76108;BME280;64834;52.516;10.528;2023-05-20T11:16:24;101823.56;;;15.51;61.86
76108;BME280;64834;52.516;10.528;2023-05-20T11:18:49;101828.13;;;15.54;61.56
76108;BME280;64834;52.516;10.528;2023-05-20T11:21:15;101821.16;;;15.39;62.00
76108;BME280;64834;52.516;10.528;2023-05-20T11:23:40;101825.97;;;15.30;62.10
76108;BME280;64834;52.516;10.528;2023-05-20T11:26:06;101815.66;;;15.35;63.11
76108;BME280;64834;52.516;10.528;2023-05-20T11:28:34;101821.16;;;15.39;62.39
76108;BME280;64834;52.516;10.528;2023-05-20T11:31:00;101812.78;;;15.30;62.15
76108;BME280;64834;52.516;10.528;2023-05-20T11:33:25;101812.97;;;15.66;61.82
76108;BME280;64834;52.516;10.528;2023-05-20T11:35:52;101805.78;;;15.80;61.21
76108;BME280;64834;52.516;10.528;2023-05-20T11:38:18;101801.66;;;15.69;61.57
76108;BME280;64834;52.516;10.528;2023-05-20T11:40:46;101802.50;;;15.68;61.63
76108;BME280;64834;52.516;10.528;2023-05-20T11:43:13;101807.00;;;15.70;61.29
76108;BME280;64834;52.516;10.528;2023-05-20T11:45:47;101796.53;;;15.55;61.35
76108;BME280;64834;52.516;10.528;2023-05-20T11:48:17;101800.31;;;15.60;61.97
76108;BME280;64834;52.516;10.528;2023-05-20T11:50:45;101796.97;;;15.63;62.01
76108;BME280;64834;52.516;10.528;2023-05-20T11:53:16;101783.94;;;15.66;61.32
76108;BME280;64834;52.516;10.528;2023-05-20T11:55:47;101786.34;;;15.96;61.18
76108;BME280;64834;52.516;10.528;2023-05-20T11:58:21;101777.63;;;16.14;60.09
76108;BME280;64834;52.516;10.528;2023-05-20T12:00:47;101770.25;;;16.25;59.50
76108;BME280;64834;52.516;10.528;2023-05-20T12:03:12;101771.53;;;16.15;59.89
76108;BME280;64834;52.516;10.528;2023-05-20T12:05:38;101757.09;;;16.09;60.28
76108;BME280;64834;52.516;10.528;2023-05-20T12:08:05;101751.63;;;16.22;59.40
76108;BME280;64834;52.516;10.528;2023-05-20T12:10:30;101762.56;;;16.48;59.15
76108;BME280;64834;52.516;10.528;2023-05-20T12:12:56;101761.19;;;16.74;59.42
76108;BME280;64834;52.516;10.528;2023-05-20T12:15:21;101757.78;;;16.76;58.44
76108;BME280;64834;52.516;10.528;2023-05-20T12:17:51;101757.03;;;16.61;58.44
76108;BME280;64834;52.516;10.528;2023-05-20T12:20:19;101755.91;;;16.56;58.75
76108;BME280;64834;52.516;10.528;2023-05-20T12:22:45;101747.41;;;16.63;59.16
76108;BME280;64834;52.516;10.528;2023-05-20T12:25:11;101745.06;;;16.69;59.21
76108;BME280;64834;52.516;10.528;2023-05-20T12:27:38;101745.09;;;17.06;58.50
76108;BME280;64834;52.516;10.528;2023-05-20T12:30:04;101740.88;;;17.10;58.08
76108;BME280;64834;52.516;10.528;2023-05-20T12:32:30;101735.81;;;16.96;57.92
76108;BME280;64834;52.516;10.528;2023-05-20T12:34:55;101733.44;;;17.03;57.74
76108;BME280;64834;52.516;10.528;2023-05-20T12:37:21;101723.56;;;16.79;57.33
76108;BME280;64834;52.516;10.528;2023-05-20T12:39:46;101729.09;;;16.48;59.20
76108;BME280;64834;52.516;10.528;2023-05-20T12:42:11;101731.75;;;16.48;58.48